DVR280 TNCC-TNCA
Flight info
| Callsign | DVR280 |
|---|---|
| Flight time | 0h 25m |
| Altitude | 6000 |
| Route | DCT |
| Aircraft | DHC6/L-SDFGR/C |
Departure
| Time | 2026-05-03 21:13 |
|---|---|
| Airport | Hato International Airport (TNCC) |
Arrival
| Time | 2026-05-03 21:39 |
|---|---|
| Airport | Queen Beatrix International Airport (TNCA) |
| Time | Latitude | Longitude | Altitude | Speed | Heading |
|---|---|---|---|---|---|
| 2026-05-03 20:48 | 12.18612 | -68.95983 | 38 ft | 0 kts | 282° |
| 2026-05-03 21:04 | 12.18615 | -68.95997 | 38 ft | 6 kts | 284° |
| 2026-05-03 21:04 | 12.18633 | -68.96008 | 38 ft | 5 kts | 14° |
| 2026-05-03 21:04 | 12.18677 | -68.95998 | 37 ft | 7 kts | 12° |
| 2026-05-03 21:04 | 12.18709 | -68.95995 | 37 ft | 4 kts | 336° |
| 2026-05-03 21:05 | 12.18727 | -68.96050 | 37 ft | 12 kts | 281° |
| 2026-05-03 21:05 | 12.18742 | -68.96123 | 37 ft | 5 kts | 282° |
| 2026-05-03 21:05 | 12.18754 | -68.96181 | 37 ft | 12 kts | 282° |
| 2026-05-03 21:05 | 12.18769 | -68.96253 | 37 ft | 12 kts | 282° |
| 2026-05-03 21:06 | 12.18791 | -68.96360 | 37 ft | 15 kts | 282° |
| 2026-05-03 21:06 | 12.18808 | -68.96437 | 37 ft | 12 kts | 283° |
| 2026-05-03 21:06 | 12.18827 | -68.96519 | 37 ft | 13 kts | 281° |
| 2026-05-03 21:06 | 12.18846 | -68.96620 | 36 ft | 14 kts | 282° |
| 2026-05-03 21:07 | 12.18866 | -68.96716 | 36 ft | 16 kts | 282° |
| 2026-05-03 21:07 | 12.18890 | -68.96803 | 36 ft | 11 kts | 322° |
| 2026-05-03 21:07 | 12.18950 | -68.96807 | 35 ft | 8 kts | 12° |
| 2026-05-03 21:07 | 12.18980 | -68.96801 | 35 ft | 0 kts | 11° |
| 2026-05-03 21:10 | 12.18988 | -68.96800 | 35 ft | 3 kts | 10° |
| 2026-05-03 21:11 | 12.19027 | -68.96792 | 35 ft | 8 kts | 11° |
| 2026-05-03 21:11 | 12.19053 | -68.96762 | 36 ft | 5 kts | 84° |
| 2026-05-03 21:11 | 12.19053 | -68.96754 | 36 ft | 0 kts | 102° |
| 2026-05-03 21:12 | 12.19049 | -68.96734 | 36 ft | 19 kts | 102° |
| 2026-05-03 21:12 | 12.18974 | -68.96386 | 54 ft | 76 kts | 101° |
| 2026-05-03 21:13 | 12.18861 | -68.95849 | 265 ft | 81 kts | 104° |
| 2026-05-03 21:13 | 12.18739 | -68.95254 | 471 ft | 86 kts | 104° |
| 2026-05-03 21:13 | 12.18730 | -68.94668 | 766 ft | 87 kts | 66° |
| 2026-05-03 21:13 | 12.19344 | -68.94494 | 984 ft | 115 kts | 351° |
| 2026-05-03 21:14 | 12.20023 | -68.95136 | 915 ft | 147 kts | 310° |
| 2026-05-03 21:14 | 12.20613 | -68.95979 | 1026 ft | 147 kts | 313° |
| 2026-05-03 21:14 | 12.21197 | -68.96815 | 1233 ft | 145 kts | 311° |
| 2026-05-03 21:14 | 12.21746 | -68.97722 | 1429 ft | 155 kts | 305° |
| 2026-05-03 21:15 | 12.22283 | -68.98696 | 1697 ft | 160 kts | 304° |
| 2026-05-03 21:15 | 12.22784 | -68.99726 | 2018 ft | 161 kts | 296° |
| 2026-05-03 21:15 | 12.23165 | -69.00804 | 2262 ft | 164 kts | 292° |
| 2026-05-03 21:15 | 12.23542 | -69.01934 | 2418 ft | 174 kts | 292° |
| 2026-05-03 21:16 | 12.23953 | -69.03121 | 2658 ft | 176 kts | 290° |
| 2026-05-03 21:16 | 12.24275 | -69.04292 | 3040 ft | 169 kts | 285° |
| 2026-05-03 21:16 | 12.24509 | -69.05467 | 3263 ft | 174 kts | 279° |
| 2026-05-03 21:16 | 12.24729 | -69.06703 | 3451 ft | 174 kts | 280° |
| 2026-05-03 21:17 | 12.24915 | -69.07903 | 3774 ft | 167 kts | 276° |
| 2026-05-03 21:17 | 12.25004 | -69.08684 | 3824 ft | 175 kts | 276° |
| 2026-05-03 21:17 | 12.25184 | -69.10382 | 3928 ft | 181 kts | 275° |
| 2026-05-03 21:17 | 12.25313 | -69.11697 | 3929 ft | 189 kts | 275° |
| 2026-05-03 21:18 | 12.25436 | -69.13026 | 4045 ft | 184 kts | 274° |
| 2026-05-03 21:18 | 12.25510 | -69.13886 | 4171 ft | 180 kts | 274° |
| 2026-05-03 21:18 | 12.25642 | -69.15597 | 4382 ft | 184 kts | 271° |
| 2026-05-03 21:18 | 12.25703 | -69.16469 | 4497 ft | 185 kts | 271° |
| 2026-05-03 21:19 | 12.25785 | -69.17788 | 4665 ft | 186 kts | 270° |
| 2026-05-03 21:19 | 12.25858 | -69.19105 | 4823 ft | 186 kts | 270° |
| 2026-05-03 21:19 | 12.25923 | -69.20425 | 4988 ft | 184 kts | 270° |
| 2026-05-03 21:19 | 12.26083 | -69.21701 | 5127 ft | 183 kts | 283° |
| 2026-05-03 21:20 | 12.26535 | -69.22929 | 5242 ft | 184 kts | 286° |
| 2026-05-03 21:20 | 12.26572 | -69.24237 | 5341 ft | 183 kts | 263° |
| 2026-05-03 21:20 | 12.26476 | -69.25532 | 5474 ft | 186 kts | 264° |
| 2026-05-03 21:20 | 12.26493 | -69.26841 | 5614 ft | 183 kts | 278° |
| 2026-05-03 21:21 | 12.26755 | -69.28104 | 5740 ft | 185 kts | 280° |
| 2026-05-03 21:21 | 12.27026 | -69.29399 | 5881 ft | 184 kts | 282° |
| 2026-05-03 21:21 | 12.27288 | -69.30667 | 6017 ft | 184 kts | 281° |
| 2026-05-03 21:21 | 12.27546 | -69.31937 | 6155 ft | 184 kts | 281° |
| 2026-05-03 21:22 | 12.27799 | -69.33221 | 6290 ft | 182 kts | 281° |
| 2026-05-03 21:22 | 12.28043 | -69.34485 | 6404 ft | 185 kts | 281° |
| 2026-05-03 21:22 | 12.28334 | -69.35782 | 6509 ft | 187 kts | 287° |
| 2026-05-03 21:22 | 12.28690 | -69.37064 | 6642 ft | 189 kts | 286° |
| 2026-05-03 21:23 | 12.29045 | -69.38353 | 6758 ft | 191 kts | 286° |
| 2026-05-03 21:23 | 12.29541 | -69.39585 | 6823 ft | 183 kts | 312° |
| 2026-05-03 21:23 | 12.30166 | -69.40659 | 7071 ft | 173 kts | 292° |
| 2026-05-03 21:23 | 12.30514 | -69.41837 | 7269 ft | 174 kts | 282° |
| 2026-05-03 21:24 | 12.30777 | -69.43071 | 7311 ft | 183 kts | 282° |
| 2026-05-03 21:24 | 12.31044 | -69.44361 | 7379 ft | 186 kts | 282° |
| 2026-05-03 21:24 | 12.31308 | -69.45640 | 7530 ft | 184 kts | 282° |
| 2026-05-03 21:24 | 12.31572 | -69.46924 | 7665 ft | 185 kts | 281° |
| 2026-05-03 21:25 | 12.31833 | -69.48210 | 7811 ft | 184 kts | 282° |
| 2026-05-03 21:25 | 12.32098 | -69.49482 | 7951 ft | 184 kts | 282° |
| 2026-05-03 21:25 | 12.32370 | -69.50781 | 8022 ft | 188 kts | 282° |
| 2026-05-03 21:25 | 12.32637 | -69.52094 | 8030 ft | 192 kts | 282° |
| 2026-05-03 21:26 | 12.32911 | -69.53469 | 8030 ft | 199 kts | 282° |
| 2026-05-03 21:26 | 12.33181 | -69.54862 | 8031 ft | 200 kts | 281° |
| 2026-05-03 21:26 | 12.33453 | -69.56227 | 8031 ft | 193 kts | 283° |
| 2026-05-03 21:26 | 12.33799 | -69.57554 | 8016 ft | 191 kts | 286° |
| 2026-05-03 21:27 | 12.34151 | -69.58848 | 8015 ft | 190 kts | 286° |
| 2026-05-03 21:27 | 12.34505 | -69.60142 | 8009 ft | 189 kts | 287° |
| 2026-05-03 21:27 | 12.34852 | -69.61439 | 7982 ft | 189 kts | 286° |
| 2026-05-03 21:27 | 12.35208 | -69.62765 | 7825 ft | 195 kts | 286° |
| 2026-05-03 21:28 | 12.35576 | -69.64115 | 7654 ft | 200 kts | 286° |
| 2026-05-03 21:28 | 12.35951 | -69.65497 | 7508 ft | 201 kts | 286° |
| 2026-05-03 21:28 | 12.36318 | -69.66856 | 7371 ft | 200 kts | 286° |
| 2026-05-03 21:28 | 12.36676 | -69.68208 | 7225 ft | 194 kts | 286° |
| 2026-05-03 21:29 | 12.37028 | -69.69550 | 7066 ft | 194 kts | 286° |
| 2026-05-03 21:29 | 12.37374 | -69.70875 | 6907 ft | 193 kts | 286° |
| 2026-05-03 21:29 | 12.37712 | -69.72174 | 6621 ft | 186 kts | 286° |
| 2026-05-03 21:29 | 12.38046 | -69.73449 | 6293 ft | 185 kts | 285° |
| 2026-05-03 21:30 | 12.38384 | -69.74735 | 5959 ft | 188 kts | 286° |
| 2026-05-03 21:30 | 12.38732 | -69.76029 | 5549 ft | 189 kts | 285° |
| 2026-05-03 21:30 | 12.39095 | -69.77318 | 5147 ft | 190 kts | 285° |
| 2026-05-03 21:30 | 12.39475 | -69.78627 | 4752 ft | 191 kts | 285° |
| 2026-05-03 21:31 | 12.39858 | -69.79922 | 4339 ft | 191 kts | 286° |
| 2026-05-03 21:31 | 12.40228 | -69.81243 | 3931 ft | 192 kts | 287° |
| 2026-05-03 21:31 | 12.40558 | -69.82553 | 3549 ft | 190 kts | 286° |
| 2026-05-03 21:31 | 12.40874 | -69.83858 | 3216 ft | 187 kts | 286° |
| 2026-05-03 21:32 | 12.41259 | -69.85119 | 2870 ft | 186 kts | 292° |
| 2026-05-03 21:32 | 12.41704 | -69.86344 | 2560 ft | 183 kts | 294° |
| 2026-05-03 21:32 | 12.42136 | -69.87578 | 2364 ft | 186 kts | 293° |
| 2026-05-03 21:32 | 12.42547 | -69.88828 | 2210 ft | 188 kts | 293° |
| 2026-05-03 21:33 | 12.42967 | -69.90103 | 2087 ft | 189 kts | 293° |
| 2026-05-03 21:33 | 12.43381 | -69.91370 | 2004 ft | 187 kts | 292° |
| 2026-05-03 21:33 | 12.43807 | -69.92614 | 1991 ft | 181 kts | 293° |
| 2026-05-03 21:33 | 12.44296 | -69.93751 | 1989 ft | 170 kts | 305° |
| 2026-05-03 21:34 | 12.44730 | -69.94879 | 1983 ft | 170 kts | 290° |
| 2026-05-03 21:34 | 12.45077 | -69.96037 | 1917 ft | 173 kts | 291° |
| 2026-05-03 21:34 | 12.45449 | -69.97216 | 1803 ft | 175 kts | 293° |
| 2026-05-03 21:34 | 12.45952 | -69.98357 | 1702 ft | 175 kts | 300° |
| 2026-05-03 21:35 | 12.46483 | -69.99479 | 1613 ft | 178 kts | 300° |
| 2026-05-03 21:35 | 12.47015 | -70.00622 | 1524 ft | 180 kts | 300° |
| 2026-05-03 21:35 | 12.47534 | -70.01749 | 1419 ft | 168 kts | 300° |
| 2026-05-03 21:35 | 12.48040 | -70.02818 | 1067 ft | 173 kts | 302° |
| 2026-05-03 21:36 | 12.48577 | -70.03843 | 872 ft | 151 kts | 303° |
| 2026-05-03 21:36 | 12.49037 | -70.04668 | 819 ft | 111 kts | 309° |
| 2026-05-03 21:36 | 12.49482 | -70.05195 | 756 ft | 98 kts | 331° |
| 2026-05-03 21:36 | 12.50100 | -70.05349 | 725 ft | 91 kts | 28° |
| 2026-05-03 21:37 | 12.50601 | -70.05015 | 649 ft | 83 kts | 65° |
| 2026-05-03 21:37 | 12.50735 | -70.04564 | 442 ft | 58 kts | 89° |
| 2026-05-03 21:37 | 12.50695 | -70.04161 | 361 ft | 61 kts | 91° |
| 2026-05-03 21:37 | 12.50639 | -70.03713 | 307 ft | 64 kts | 98° |
| 2026-05-03 21:38 | 12.50536 | -70.03262 | 252 ft | 66 kts | 102° |
| 2026-05-03 21:38 | 12.50425 | -70.02813 | 220 ft | 65 kts | 99° |
| 2026-05-03 21:38 | 12.50334 | -70.02375 | 90 ft | 57 kts | 97° |
| 2026-05-03 21:38 | 12.50244 | -70.01993 | 42 ft | 51 kts | 97° |
| 2026-05-03 21:39 | 12.50197 | -70.01774 | 38 ft | 20 kts | 102° |
| 2026-05-03 21:39 | 12.50162 | -70.01623 | 40 ft | 23 kts | 103° |
| 2026-05-03 21:39 | 12.50126 | -70.01471 | 41 ft | 21 kts | 101° |
| 2026-05-03 21:39 | 12.50194 | -70.01389 | 42 ft | 16 kts | 8° |
| 2026-05-03 21:40 | 12.50267 | -70.01382 | 41 ft | 8 kts | 342° |
| 2026-05-03 21:40 | 12.50325 | -70.01398 | 41 ft | 9 kts | 23° |
| 2026-05-03 21:40 | 12.50347 | -70.01356 | 41 ft | 5 kts | 80° |
| 2026-05-03 21:40 | 12.50352 | -70.01328 | 41 ft | 3 kts | 80° |
| 2026-05-03 21:41 | 12.50354 | -70.01313 | 41 ft | 2 kts | 78° |
| 2026-05-03 21:41 | 12.50381 | -70.01295 | 41 ft | 5 kts | 12° |
| 2026-05-03 21:41 | 12.50405 | -70.01293 | 41 ft | 1 kts | 14° |
| 2026-05-03 21:41 | 12.50403 | -70.01289 | 41 ft | 1 kts | 197° |